Terminal Aerodrome Forecast
Issued by NWS

Home | Current Version | Previous Version | Text Only | Print | Product List | Glossary Off
Versions: 1 2 3 4 5 6 7 8 9 10 11 12 13 14 15 16 17 18 19 20 21 22 23 24 25 26 27 28

930
FTUS43 KLOT 312350
TAFDPA
TAF
KDPA 312350Z 0100/0124 08010KT P6SM VCSH BKN100
     FM010500 12006KT P6SM SCT050 BKN100
     FM010900 15007KT P6SM VCSH SCT050 BKN100
     FM011200 18006KT 6SM SHRA VCTS SCT040CB BKN080
     FM011600 22008KT P6SM BKN080
     FM012000 26010KT P6SM VCTS SCT040 BKN100CB=

USA.gov is the U.S. government's official web portal to all federal, state and local government web resources and services.